sensor_id;sensor_type;location;lat;lon;timestamp;P1;durP1;ratioP1;P2;durP2;ratioP2
5022;SDS011;2530;47.990;7.866;2023-06-26T00:00:02;6.37;;;5.80;;
5022;SDS011;2530;47.990;7.866;2023-06-26T00:02:30;7.47;;;6.10;;
5022;SDS011;2530;47.990;7.866;2023-06-26T00:04:57;7.00;;;6.40;;
5022;SDS011;2530;47.990;7.866;2023-06-26T00:07:23;6.87;;;6.33;;
5022;SDS011;2530;47.990;7.866;2023-06-26T00:09:48;6.53;;;5.82;;
5022;SDS011;2530;47.990;7.866;2023-06-26T00:12:14;6.77;;;6.20;;
5022;SDS011;2530;47.990;7.866;2023-06-26T00:14:39;6.60;;;6.00;;
5022;SDS011;2530;47.990;7.866;2023-06-26T00:17:05;6.70;;;6.10;;
5022;SDS011;2530;47.990;7.866;2023-06-26T00:19:30;6.43;;;5.90;;
5022;SDS011;2530;47.990;7.866;2023-06-26T00:21:56;6.90;;;6.20;;
5022;SDS011;2530;47.990;7.866;2023-06-26T00:24:22;7.27;;;6.57;;
5022;SDS011;2530;47.990;7.866;2023-06-26T00:26:47;6.30;;;5.70;;
5022;SDS011;2530;47.990;7.866;2023-06-26T00:29:13;7.00;;;6.40;;
5022;SDS011;2530;47.990;7.866;2023-06-26T00:31:38;7.10;;;6.50;;
5022;SDS011;2530;47.990;7.866;2023-06-26T00:34:05;6.53;;;6.00;;
5022;SDS011;2530;47.990;7.866;2023-06-26T00:36:31;6.30;;;5.80;;
5022;SDS011;2530;47.990;7.866;2023-06-26T00:38:56;6.47;;;5.87;;
5022;SDS011;2530;47.990;7.866;2023-06-26T00:41:22;6.88;;;5.75;;
5022;SDS011;2530;47.990;7.866;2023-06-26T00:43:48;6.70;;;6.10;;
5022;SDS011;2530;47.990;7.866;2023-06-26T00:46:13;6.75;;;5.90;;
5022;SDS011;2530;47.990;7.866;2023-06-26T00:48:41;7.07;;;6.38;;
5022;SDS011;2530;47.990;7.866;2023-06-26T00:51:07;6.60;;;6.00;;
5022;SDS011;2530;47.990;7.866;2023-06-26T00:53:33;6.37;;;5.80;;
5022;SDS011;2530;47.990;7.866;2023-06-26T00:55:59;6.80;;;6.00;;
5022;SDS011;2530;47.990;7.866;2023-06-26T00:58:26;6.72;;;6.00;;
5022;SDS011;2530;47.990;7.866;2023-06-26T01:00:52;6.90;;;5.83;;
5022;SDS011;2530;47.990;7.866;2023-06-26T01:03:18;6.50;;;5.90;;
5022;SDS011;2530;47.990;7.866;2023-06-26T01:05:48;7.60;;;6.10;;
5022;SDS011;2530;47.990;7.866;2023-06-26T01:08:19;6.28;;;5.68;;
5022;SDS011;2530;47.990;7.866;2023-06-26T01:10:45;8.60;;;5.78;;
5022;SDS011;2530;47.990;7.866;2023-06-26T01:13:14;7.00;;;6.30;;
5022;SDS011;2530;47.990;7.866;2023-06-26T01:15:41;6.53;;;5.90;;
5022;SDS011;2530;47.990;7.866;2023-06-26T01:18:06;7.28;;;6.07;;
5022;SDS011;2530;47.990;7.866;2023-06-26T01:20:37;7.60;;;6.22;;
5022;SDS011;2530;47.990;7.866;2023-06-26T01:23:14;6.65;;;6.05;;
5022;SDS011;2530;47.990;7.866;2023-06-26T01:28:33;5.93;;;5.43;;
5022;SDS011;2530;47.990;7.866;2023-06-26T01:31:00;6.53;;;5.75;;
5022;SDS011;2530;47.990;7.866;2023-06-26T01:33:27;7.40;;;6.20;;
5022;SDS011;2530;47.990;7.866;2023-06-26T01:35:53;6.82;;;6.22;;
5022;SDS011;2530;47.990;7.866;2023-06-26T01:38:20;6.97;;;6.37;;
5022;SDS011;2530;47.990;7.866;2023-06-26T01:40:48;6.57;;;5.97;;
5022;SDS011;2530;47.990;7.866;2023-06-26T01:46:22;6.63;;;5.93;;
5022;SDS011;2530;47.990;7.866;2023-06-26T01:51:41;7.47;;;6.20;;
5022;SDS011;2530;47.990;7.866;2023-06-26T01:54:13;6.60;;;5.90;;
5022;SDS011;2530;47.990;7.866;2023-06-26T01:56:43;6.80;;;6.10;;
5022;SDS011;2530;47.990;7.866;2023-06-26T01:59:10;6.72;;;6.03;;
5022;SDS011;2530;47.990;7.866;2023-06-26T02:01:38;6.55;;;5.95;;
5022;SDS011;2530;47.990;7.866;2023-06-26T02:04:04;6.60;;;6.00;;
5022;SDS011;2530;47.990;7.866;2023-06-26T02:06:30;7.07;;;6.47;;
5022;SDS011;2530;47.990;7.866;2023-06-26T02:08:55;6.80;;;6.20;;
5022;SDS011;2530;47.990;7.866;2023-06-26T02:11:21;7.00;;;6.30;;
5022;SDS011;2530;47.990;7.866;2023-06-26T02:13:47;7.85;;;6.10;;
5022;SDS011;2530;47.990;7.866;2023-06-26T02:16:13;6.97;;;5.82;;
5022;SDS011;2530;47.990;7.866;2023-06-26T02:18:38;6.40;;;5.80;;
5022;SDS011;2530;47.990;7.866;2023-06-26T02:21:04;6.88;;;6.28;;
5022;SDS011;2530;47.990;7.866;2023-06-26T02:23:30;7.18;;;6.50;;
5022;SDS011;2530;47.990;7.866;2023-06-26T02:25:56;6.35;;;5.78;;
5022;SDS011;2530;47.990;7.866;2023-06-26T02:28:21;7.70;;;6.00;;
5022;SDS011;2530;47.990;7.866;2023-06-26T02:30:47;6.87;;;6.27;;
5022;SDS011;2530;47.990;7.866;2023-06-26T02:33:12;6.57;;;5.97;;
5022;SDS011;2530;47.990;7.866;2023-06-26T02:35:38;7.23;;;6.10;;
5022;SDS011;2530;47.990;7.866;2023-06-26T02:38:03;6.47;;;5.88;;
5022;SDS011;2530;47.990;7.866;2023-06-26T02:40:29;6.55;;;5.88;;
5022;SDS011;2530;47.990;7.866;2023-06-26T02:42:54;7.57;;;6.40;;
5022;SDS011;2530;47.990;7.866;2023-06-26T02:45:20;6.32;;;5.72;;
5022;SDS011;2530;47.990;7.866;2023-06-26T02:47:46;6.37;;;5.77;;
5022;SDS011;2530;47.990;7.866;2023-06-26T02:50:11;7.07;;;6.10;;
5022;SDS011;2530;47.990;7.866;2023-06-26T02:52:37;6.97;;;6.35;;
5022;SDS011;2530;47.990;7.866;2023-06-26T02:55:03;6.50;;;5.80;;
5022;SDS011;2530;47.990;7.866;2023-06-26T02:57:29;7.00;;;6.40;;
5022;SDS011;2530;47.990;7.866;2023-06-26T02:59:55;6.97;;;6.28;;
5022;SDS011;2530;47.990;7.866;2023-06-26T03:02:20;6.37;;;5.77;;
5022;SDS011;2530;47.990;7.866;2023-06-26T03:04:46;6.10;;;5.60;;
5022;SDS011;2530;47.990;7.866;2023-06-26T03:07:11;6.20;;;5.60;;
5022;SDS011;2530;47.990;7.866;2023-06-26T03:09:37;6.60;;;6.00;;
5022;SDS011;2530;47.990;7.866;2023-06-26T03:12:03;6.47;;;5.88;;
5022;SDS011;2530;47.990;7.866;2023-06-26T03:14:28;7.50;;;6.80;;
5022;SDS011;2530;47.990;7.866;2023-06-26T03:16:55;6.80;;;6.20;;
5022;SDS011;2530;47.990;7.866;2023-06-26T03:19:23;7.10;;;6.40;;
5022;SDS011;2530;47.990;7.866;2023-06-26T03:21:48;7.10;;;6.50;;
5022;SDS011;2530;47.990;7.866;2023-06-26T03:24:14;6.53;;;5.93;;
5022;SDS011;2530;47.990;7.866;2023-06-26T03:26:39;7.07;;;6.20;;
5022;SDS011;2530;47.990;7.866;2023-06-26T03:29:05;7.03;;;6.43;;
5022;SDS011;2530;47.990;7.866;2023-06-26T03:31:30;7.40;;;6.40;;
5022;SDS011;2530;47.990;7.866;2023-06-26T03:33:56;6.75;;;6.15;;
5022;SDS011;2530;47.990;7.866;2023-06-26T03:36:21;7.33;;;6.63;;
5022;SDS011;2530;47.990;7.866;2023-06-26T03:38:47;6.75;;;6.15;;
5022;SDS011;2530;47.990;7.866;2023-06-26T03:41:12;6.20;;;5.60;;
5022;SDS011;2530;47.990;7.866;2023-06-26T03:43:38;6.75;;;6.05;;
5022;SDS011;2530;47.990;7.866;2023-06-26T03:46:03;6.70;;;6.00;;
5022;SDS011;2530;47.990;7.866;2023-06-26T03:48:29;7.47;;;6.77;;
5022;SDS011;2530;47.990;7.866;2023-06-26T03:50:54;6.80;;;6.10;;
5022;SDS011;2530;47.990;7.866;2023-06-26T03:53:20;6.40;;;5.80;;
5022;SDS011;2530;47.990;7.866;2023-06-26T03:55:46;7.30;;;6.60;;
5022;SDS011;2530;47.990;7.866;2023-06-26T03:58:11;6.22;;;5.72;;
5022;SDS011;2530;47.990;7.866;2023-06-26T04:00:37;6.70;;;6.00;;
5022;SDS011;2530;47.990;7.866;2023-06-26T04:03:02;6.93;;;6.22;;
5022;SDS011;2530;47.990;7.866;2023-06-26T04:05:29;6.35;;;5.85;;
5022;SDS011;2530;47.990;7.866;2023-06-26T04:07:54;6.50;;;6.00;;
5022;SDS011;2530;47.990;7.866;2023-06-26T04:10:20;6.85;;;6.00;;
5022;SDS011;2530;47.990;7.866;2023-06-26T04:12:46;6.55;;;5.90;;
5022;SDS011;2530;47.990;7.866;2023-06-26T04:15:13;6.80;;;6.20;;
5022;SDS011;2530;47.990;7.866;2023-06-26T04:17:38;6.77;;;6.00;;
5022;SDS011;2530;47.990;7.866;2023-06-26T04:20:04;6.78;;;6.07;;
5022;SDS011;2530;47.990;7.866;2023-06-26T04:22:33;6.97;;;6.10;;
5022;SDS011;2530;47.990;7.866;2023-06-26T04:25:01;6.30;;;5.70;;
5022;SDS011;2530;47.990;7.866;2023-06-26T04:27:28;7.05;;;6.40;;
5022;SDS011;2530;47.990;7.866;2023-06-26T04:29:53;6.22;;;5.72;;
5022;SDS011;2530;47.990;7.866;2023-06-26T04:32:19;6.70;;;6.10;;
5022;SDS011;2530;47.990;7.866;2023-06-26T04:34:44;6.57;;;5.97;;
5022;SDS011;2530;47.990;7.866;2023-06-26T04:37:10;6.70;;;6.10;;
5022;SDS011;2530;47.990;7.866;2023-06-26T04:39:36;7.60;;;6.25;;
5022;SDS011;2530;47.990;7.866;2023-06-26T04:42:02;8.67;;;6.50;;
5022;SDS011;2530;47.990;7.866;2023-06-26T04:44:29;6.93;;;6.32;;
5022;SDS011;2530;47.990;7.866;2023-06-26T04:46:54;7.28;;;6.68;;
5022;SDS011;2530;47.990;7.866;2023-06-26T04:49:20;8.00;;;7.20;;
5022;SDS011;2530;47.990;7.866;2023-06-26T04:51:45;7.30;;;6.40;;
5022;SDS011;2530;47.990;7.866;2023-06-26T04:54:11;8.37;;;6.50;;
5022;SDS011;2530;47.990;7.866;2023-06-26T04:56:36;7.50;;;6.80;;
5022;SDS011;2530;47.990;7.866;2023-06-26T04:59:04;7.03;;;6.32;;
5022;SDS011;2530;47.990;7.866;2023-06-26T05:01:30;7.13;;;6.43;;
5022;SDS011;2530;47.990;7.866;2023-06-26T05:03:57;7.00;;;6.40;;
5022;SDS011;2530;47.990;7.866;2023-06-26T05:06:23;7.30;;;6.70;;
5022;SDS011;2530;47.990;7.866;2023-06-26T05:08:48;6.80;;;6.20;;
5022;SDS011;2530;47.990;7.866;2023-06-26T05:11:14;6.70;;;6.10;;
5022;SDS011;2530;47.990;7.866;2023-06-26T05:13:39;6.80;;;6.20;;
5022;SDS011;2530;47.990;7.866;2023-06-26T05:16:05;7.40;;;6.70;;
5022;SDS011;2530;47.990;7.866;2023-06-26T05:18:34;7.53;;;6.75;;
5022;SDS011;2530;47.990;7.866;2023-06-26T05:21:00;7.05;;;6.45;;
5022;SDS011;2530;47.990;7.866;2023-06-26T05:23:26;6.90;;;6.30;;
5022;SDS011;2530;47.990;7.866;2023-06-26T05:25:55;6.83;;;6.20;;
5022;SDS011;2530;47.990;7.866;2023-06-26T05:28:21;7.17;;;6.50;;
5022;SDS011;2530;47.990;7.866;2023-06-26T05:30:49;6.73;;;6.13;;
5022;SDS011;2530;47.990;7.866;2023-06-26T05:33:15;6.70;;;6.10;;
5022;SDS011;2530;47.990;7.866;2023-06-26T05:35:43;7.50;;;6.70;;
5022;SDS011;2530;47.990;7.866;2023-06-26T05:38:13;8.60;;;6.85;;
5022;SDS011;2530;47.990;7.866;2023-06-26T05:40:39;7.60;;;6.90;;
5022;SDS011;2530;47.990;7.866;2023-06-26T05:43:05;7.50;;;6.80;;
5022;SDS011;2530;47.990;7.866;2023-06-26T05:45:32;8.55;;;6.50;;
5022;SDS011;2530;47.990;7.866;2023-06-26T05:47:58;6.78;;;6.15;;
5022;SDS011;2530;47.990;7.866;2023-06-26T05:50:24;7.35;;;6.70;;
5022;SDS011;2530;47.990;7.866;2023-06-26T05:52:50;7.20;;;6.50;;
5022;SDS011;2530;47.990;7.866;2023-06-26T05:55:16;7.57;;;6.60;;
5022;SDS011;2530;47.990;7.866;2023-06-26T05:57:42;6.57;;;5.97;;
5022;SDS011;2530;47.990;7.866;2023-06-26T06:00:08;7.07;;;6.40;;
5022;SDS011;2530;47.990;7.866;2023-06-26T06:02:36;6.55;;;5.97;;
5022;SDS011;2530;47.990;7.866;2023-06-26T06:05:02;6.85;;;6.15;;
5022;SDS011;2530;47.990;7.866;2023-06-26T06:07:28;6.95;;;6.30;;
5022;SDS011;2530;47.990;7.866;2023-06-26T06:09:53;7.20;;;6.50;;
5022;SDS011;2530;47.990;7.866;2023-06-26T06:12:19;7.20;;;6.60;;
5022;SDS011;2530;47.990;7.866;2023-06-26T06:14:44;7.40;;;6.70;;
5022;SDS011;2530;47.990;7.866;2023-06-26T06:17:10;7.70;;;6.90;;
5022;SDS011;2530;47.990;7.866;2023-06-26T06:19:35;6.80;;;6.13;;
5022;SDS011;2530;47.990;7.866;2023-06-26T06:22:01;7.18;;;6.57;;
5022;SDS011;2530;47.990;7.866;2023-06-26T06:24:27;7.97;;;6.18;;
5022;SDS011;2530;47.990;7.866;2023-06-26T06:26:52;7.20;;;6.50;;
5022;SDS011;2530;47.990;7.866;2023-06-26T06:29:18;6.90;;;6.30;;
5022;SDS011;2530;47.990;7.866;2023-06-26T06:31:44;6.50;;;5.90;;
5022;SDS011;2530;47.990;7.866;2023-06-26T06:34:10;6.35;;;5.75;;
5022;SDS011;2530;47.990;7.866;2023-06-26T06:36:36;7.07;;;6.38;;
5022;SDS011;2530;47.990;7.866;2023-06-26T06:39:02;7.10;;;6.50;;
5022;SDS011;2530;47.990;7.866;2023-06-26T06:41:28;6.72;;;6.13;;
5022;SDS011;2530;47.990;7.866;2023-06-26T06:43:54;6.40;;;5.80;;
5022;SDS011;2530;47.990;7.866;2023-06-26T06:46:19;6.50;;;5.90;;
5022;SDS011;2530;47.990;7.866;2023-06-26T06:48:45;6.70;;;6.10;;
5022;SDS011;2530;47.990;7.866;2023-06-26T06:51:11;7.22;;;6.55;;
5022;SDS011;2530;47.990;7.866;2023-06-26T06:53:37;7.70;;;6.90;;
5022;SDS011;2530;47.990;7.866;2023-06-26T06:56:03;7.20;;;6.50;;
5022;SDS011;2530;47.990;7.866;2023-06-26T06:58:28;7.35;;;6.65;;
5022;SDS011;2530;47.990;7.866;2023-06-26T07:00:55;7.28;;;6.68;;
5022;SDS011;2530;47.990;7.866;2023-06-26T07:03:21;7.53;;;6.80;;
5022;SDS011;2530;47.990;7.866;2023-06-26T07:05:47;7.35;;;6.65;;
5022;SDS011;2530;47.990;7.866;2023-06-26T07:08:13;7.75;;;7.03;;
5022;SDS011;2530;47.990;7.866;2023-06-26T07:10:39;7.60;;;6.90;;
5022;SDS011;2530;47.990;7.866;2023-06-26T07:13:04;6.93;;;6.40;;
5022;SDS011;2530;47.990;7.866;2023-06-26T07:15:30;6.93;;;6.33;;
5022;SDS011;2530;47.990;7.866;2023-06-26T07:17:56;6.80;;;6.20;;
5022;SDS011;2530;47.990;7.866;2023-06-26T07:20:21;6.77;;;6.13;;
5022;SDS011;2530;47.990;7.866;2023-06-26T07:22:48;6.95;;;6.25;;
5022;SDS011;2530;47.990;7.866;2023-06-26T07:25:13;6.30;;;5.70;;
5022;SDS011;2530;47.990;7.866;2023-06-26T07:27:39;6.30;;;5.70;;
5022;SDS011;2530;47.990;7.866;2023-06-26T07:30:06;6.18;;;5.57;;
5022;SDS011;2530;47.990;7.866;2023-06-26T07:32:35;6.10;;;5.60;;
5022;SDS011;2530;47.990;7.866;2023-06-26T07:35:01;6.20;;;5.70;;
5022;SDS011;2530;47.990;7.866;2023-06-26T07:37:27;6.63;;;5.77;;
5022;SDS011;2530;47.990;7.866;2023-06-26T07:39:52;6.40;;;5.90;;
5022;SDS011;2530;47.990;7.866;2023-06-26T07:42:18;6.23;;;5.73;;
5022;SDS011;2530;47.990;7.866;2023-06-26T07:44:44;6.20;;;5.60;;
5022;SDS011;2530;47.990;7.866;2023-06-26T07:47:09;6.78;;;5.68;;
5022;SDS011;2530;47.990;7.866;2023-06-26T07:49:35;6.43;;;5.80;;
5022;SDS011;2530;47.990;7.866;2023-06-26T07:52:01;6.00;;;5.40;;
5022;SDS011;2530;47.990;7.866;2023-06-26T07:54:27;6.65;;;5.95;;
5022;SDS011;2530;47.990;7.866;2023-06-26T07:56:56;6.72;;;6.13;;
5022;SDS011;2530;47.990;7.866;2023-06-26T07:59:26;6.10;;;5.60;;
5022;SDS011;2530;47.990;7.866;2023-06-26T08:01:54;6.20;;;5.70;;
5022;SDS011;2530;47.990;7.866;2023-06-26T08:04:21;5.60;;;5.20;;
5022;SDS011;2530;47.990;7.866;2023-06-26T08:06:48;6.38;;;5.78;;
5022;SDS011;2530;47.990;7.866;2023-06-26T08:09:15;6.53;;;5.93;;
5022;SDS011;2530;47.990;7.866;2023-06-26T08:11:42;6.10;;;5.60;;
5022;SDS011;2530;47.990;7.866;2023-06-26T08:14:07;5.97;;;5.47;;
5022;SDS011;2530;47.990;7.866;2023-06-26T08:16:33;6.00;;;5.40;;
5022;SDS011;2530;47.990;7.866;2023-06-26T08:18:58;6.27;;;5.77;;
5022;SDS011;2530;47.990;7.866;2023-06-26T08:21:24;5.70;;;5.20;;
5022;SDS011;2530;47.990;7.866;2023-06-26T08:23:50;7.63;;;5.57;;
5022;SDS011;2530;47.990;7.866;2023-06-26T08:26:15;7.43;;;6.27;;
5022;SDS011;2530;47.990;7.866;2023-06-26T08:28:41;8.43;;;5.73;;
5022;SDS011;2530;47.990;7.866;2023-06-26T08:31:07;7.05;;;6.45;;
5022;SDS011;2530;47.990;7.866;2023-06-26T08:33:32;6.80;;;6.10;;
5022;SDS011;2530;47.990;7.866;2023-06-26T08:35:58;7.00;;;6.40;;
5022;SDS011;2530;47.990;7.866;2023-06-26T08:38:23;6.00;;;5.50;;
5022;SDS011;2530;47.990;7.866;2023-06-26T08:40:49;7.35;;;5.82;;
5022;SDS011;2530;47.990;7.866;2023-06-26T08:43:14;7.10;;;6.20;;
5022;SDS011;2530;47.990;7.866;2023-06-26T08:45:40;8.85;;;6.32;;
5022;SDS011;2530;47.990;7.866;2023-06-26T08:48:07;6.80;;;6.20;;
5022;SDS011;2530;47.990;7.866;2023-06-26T08:50:34;6.85;;;6.15;;
5022;SDS011;2530;47.990;7.866;2023-06-26T08:53:04;7.20;;;6.60;;
5022;SDS011;2530;47.990;7.866;2023-06-26T08:55:49;7.50;;;6.70;;
5022;SDS011;2530;47.990;7.866;2023-06-26T08:58:17;6.70;;;6.10;;
5022;SDS011;2530;47.990;7.866;2023-06-26T09:00:43;7.10;;;6.50;;
5022;SDS011;2530;47.990;7.866;2023-06-26T09:03:09;6.95;;;6.35;;
5022;SDS011;2530;47.990;7.866;2023-06-26T09:05:35;6.78;;;6.18;;
5022;SDS011;2530;47.990;7.866;2023-06-26T09:08:01;7.30;;;6.47;;
5022;SDS011;2530;47.990;7.866;2023-06-26T09:10:26;6.97;;;6.37;;
5022;SDS011;2530;47.990;7.866;2023-06-26T09:12:54;7.18;;;6.50;;
5022;SDS011;2530;47.990;7.866;2023-06-26T09:15:22;7.40;;;6.40;;
5022;SDS011;2530;47.990;7.866;2023-06-26T09:17:48;7.30;;;6.70;;
5022;SDS011;2530;47.990;7.866;2023-06-26T09:20:14;7.00;;;6.30;;
5022;SDS011;2530;47.990;7.866;2023-06-26T09:22:41;6.65;;;6.10;;
5022;SDS011;2530;47.990;7.866;2023-06-26T09:25:08;7.47;;;6.80;;
5022;SDS011;2530;47.990;7.866;2023-06-26T09:27:34;7.50;;;6.80;;
5022;SDS011;2530;47.990;7.866;2023-06-26T09:30:03;7.78;;;6.97;;
5022;SDS011;2530;47.990;7.866;2023-06-26T09:32:31;8.25;;;6.82;;
5022;SDS011;2530;47.990;7.866;2023-06-26T09:35:00;8.07;;;6.80;;
5022;SDS011;2530;47.990;7.866;2023-06-26T09:37:28;7.88;;;7.00;;
5022;SDS011;2530;47.990;7.866;2023-06-26T09:39:53;7.73;;;6.57;;
5022;SDS011;2530;47.990;7.866;2023-06-26T09:42:19;7.75;;;7.15;;
5022;SDS011;2530;47.990;7.866;2023-06-26T09:44:45;7.40;;;6.57;;
5022;SDS011;2530;47.990;7.866;2023-06-26T09:47:11;8.57;;;7.78;;
5022;SDS011;2530;47.990;7.866;2023-06-26T09:49:40;7.70;;;7.00;;
5022;SDS011;2530;47.990;7.866;2023-06-26T09:52:08;8.27;;;7.50;;
5022;SDS011;2530;47.990;7.866;2023-06-26T09:54:33;8.63;;;7.82;;
5022;SDS011;2530;47.990;7.866;2023-06-26T09:57:11;7.65;;;7.05;;
5022;SDS011;2530;47.990;7.866;2023-06-26T09:59:38;8.63;;;7.82;;
5022;SDS011;2530;47.990;7.866;2023-06-26T10:02:09;8.48;;;7.68;;
5022;SDS011;2530;47.990;7.866;2023-06-26T10:04:36;8.80;;;8.10;;
5022;SDS011;2530;47.990;7.866;2023-06-26T10:07:04;7.63;;;7.00;;
5022;SDS011;2530;47.990;7.866;2023-06-26T10:09:31;7.68;;;6.97;;
5022;SDS011;2530;47.990;7.866;2023-06-26T10:14:27;7.72;;;7.13;;
5022;SDS011;2530;47.990;7.866;2023-06-26T10:16:59;8.25;;;7.55;;
5022;SDS011;2530;47.990;7.866;2023-06-26T10:19:28;7.45;;;6.80;;
5022;SDS011;2530;47.990;7.866;2023-06-26T10:21:56;7.95;;;7.15;;
5022;SDS011;2530;47.990;7.866;2023-06-26T10:24:25;8.00;;;7.20;;
5022;SDS011;2530;47.990;7.866;2023-06-26T10:26:55;7.28;;;6.57;;
5022;SDS011;2530;47.990;7.866;2023-06-26T10:29:24;8.18;;;7.38;;
5022;SDS011;2530;47.990;7.866;2023-06-26T10:31:51;7.73;;;6.93;;
5022;SDS011;2530;47.990;7.866;2023-06-26T10:34:19;8.25;;;7.45;;
5022;SDS011;2530;47.990;7.866;2023-06-26T10:36:46;8.20;;;7.50;;
5022;SDS011;2530;47.990;7.866;2023-06-26T10:39:13;7.93;;;7.22;;
5022;SDS011;2530;47.990;7.866;2023-06-26T10:41:39;7.40;;;6.70;;
5022;SDS011;2530;47.990;7.866;2023-06-26T10:44:09;7.57;;;6.88;;
5022;SDS011;2530;47.990;7.866;2023-06-26T10:46:54;8.65;;;7.72;;
5022;SDS011;2530;47.990;7.866;2023-06-26T10:49:25;7.68;;;6.88;;
5022;SDS011;2530;47.990;7.866;2023-06-26T10:52:00;7.93;;;7.13;;
5022;SDS011;2530;47.990;7.866;2023-06-26T10:54:28;8.73;;;7.82;;
5022;SDS011;2530;47.990;7.866;2023-06-26T10:56:55;8.00;;;7.20;;
5022;SDS011;2530;47.990;7.866;2023-06-26T10:59:22;8.30;;;7.38;;
5022;SDS011;2530;47.990;7.866;2023-06-26T11:02:02;7.72;;;6.93;;
5022;SDS011;2530;47.990;7.866;2023-06-26T11:04:43;8.10;;;7.40;;
5022;SDS011;2530;47.990;7.866;2023-06-26T11:12:35;8.52;;;7.82;;
5022;SDS011;2530;47.990;7.866;2023-06-26T11:15:13;8.10;;;7.30;;
5022;SDS011;2530;47.990;7.866;2023-06-26T11:17:44;7.22;;;6.63;;
5022;SDS011;2530;47.990;7.866;2023-06-26T11:20:10;7.80;;;7.18;;
5022;SDS011;2530;47.990;7.866;2023-06-26T11:22:38;9.55;;;7.30;;
5022;SDS011;2530;47.990;7.866;2023-06-26T11:25:05;7.95;;;7.30;;
5022;SDS011;2530;47.990;7.866;2023-06-26T11:27:42;8.38;;;7.47;;
5022;SDS011;2530;47.990;7.866;2023-06-26T11:30:22;8.80;;;7.90;;
5022;SDS011;2530;47.990;7.866;2023-06-26T11:32:48;8.02;;;7.30;;
5022;SDS011;2530;47.990;7.866;2023-06-26T11:35:22;8.90;;;8.05;;
5022;SDS011;2530;47.990;7.866;2023-06-26T11:38:00;7.70;;;7.00;;
5022;SDS011;2530;47.990;7.866;2023-06-26T11:40:30;7.70;;;6.90;;
5022;SDS011;2530;47.990;7.866;2023-06-26T11:42:58;7.90;;;7.20;;
5022;SDS011;2530;47.990;7.866;2023-06-26T11:45:25;9.50;;;8.05;;
5022;SDS011;2530;47.990;7.866;2023-06-26T11:47:54;7.90;;;7.10;;
5022;SDS011;2530;47.990;7.866;2023-06-26T11:50:20;8.35;;;7.65;;
5022;SDS011;2530;47.990;7.866;2023-06-26T11:52:45;8.20;;;7.40;;
5022;SDS011;2530;47.990;7.866;2023-06-26T11:55:22;7.43;;;6.82;;
5022;SDS011;2530;47.990;7.866;2023-06-26T11:57:54;6.87;;;6.27;;
5022;SDS011;2530;47.990;7.866;2023-06-26T12:00:20;7.20;;;6.50;;
5022;SDS011;2530;47.990;7.866;2023-06-26T12:02:46;6.70;;;6.10;;
5022;SDS011;2530;47.990;7.866;2023-06-26T12:05:13;6.60;;;6.00;;
5022;SDS011;2530;47.990;7.866;2023-06-26T12:07:41;7.47;;;6.78;;
5022;SDS011;2530;47.990;7.866;2023-06-26T12:10:08;6.82;;;6.22;;
5022;SDS011;2530;47.990;7.866;2023-06-26T12:12:36;6.90;;;6.30;;
5022;SDS011;2530;47.990;7.866;2023-06-26T12:15:03;7.28;;;6.25;;
5022;SDS011;2530;47.990;7.866;2023-06-26T12:17:30;6.10;;;5.60;;
5022;SDS011;2530;47.990;7.866;2023-06-26T12:19:56;6.65;;;5.95;;
5022;SDS011;2530;47.990;7.866;2023-06-26T12:22:21;6.97;;;6.37;;
5022;SDS011;2530;47.990;7.866;2023-06-26T12:24:47;7.00;;;6.40;;
5022;SDS011;2530;47.990;7.866;2023-06-26T12:27:13;7.13;;;6.43;;
5022;SDS011;2530;47.990;7.866;2023-06-26T12:29:41;9.20;;;6.43;;
5022;SDS011;2530;47.990;7.866;2023-06-26T12:32:12;7.22;;;6.53;;
5022;SDS011;2530;47.990;7.866;2023-06-26T12:34:39;7.22;;;6.60;;
5022;SDS011;2530;47.990;7.866;2023-06-26T12:37:06;7.65;;;6.95;;
5022;SDS011;2530;47.990;7.866;2023-06-26T12:42:14;6.30;;;5.70;;
5022;SDS011;2530;47.990;7.866;2023-06-26T12:44:41;6.90;;;6.20;;
5022;SDS011;2530;47.990;7.866;2023-06-26T12:47:07;6.20;;;5.70;;
5022;SDS011;2530;47.990;7.866;2023-06-26T12:52:00;7.15;;;6.25;;
5022;SDS011;2530;47.990;7.866;2023-06-26T12:54:27;6.85;;;6.25;;
5022;SDS011;2530;47.990;7.866;2023-06-26T12:56:53;6.40;;;5.80;;
5022;SDS011;2530;47.990;7.866;2023-06-26T12:59:19;6.20;;;5.70;;
5022;SDS011;2530;47.990;7.866;2023-06-26T13:01:45;5.90;;;5.40;;
5022;SDS011;2530;47.990;7.866;2023-06-26T13:04:10;6.23;;;5.63;;
5022;SDS011;2530;47.990;7.866;2023-06-26T13:06:36;7.28;;;5.90;;
5022;SDS011;2530;47.990;7.866;2023-06-26T13:09:02;6.13;;;5.53;;
5022;SDS011;2530;47.990;7.866;2023-06-26T13:11:31;7.25;;;5.30;;
5022;SDS011;2530;47.990;7.866;2023-06-26T13:13:57;5.60;;;5.10;;
5022;SDS011;2530;47.990;7.866;2023-06-26T13:16:23;5.60;;;5.10;;
5022;SDS011;2530;47.990;7.866;2023-06-26T13:18:48;6.43;;;5.03;;
5022;SDS011;2530;47.990;7.866;2023-06-26T13:21:14;5.40;;;4.90;;
5022;SDS011;2530;47.990;7.866;2023-06-26T13:23:41;5.78;;;5.18;;
5022;SDS011;2530;47.990;7.866;2023-06-26T13:26:07;5.70;;;4.83;;
5022;SDS011;2530;47.990;7.866;2023-06-26T13:28:32;5.23;;;4.73;;
5022;SDS011;2530;47.990;7.866;2023-06-26T13:30:58;5.97;;;4.93;;
5022;SDS011;2530;47.990;7.866;2023-06-26T13:33:23;5.73;;;4.63;;
5022;SDS011;2530;47.990;7.866;2023-06-26T13:35:50;4.90;;;4.50;;
5022;SDS011;2530;47.990;7.866;2023-06-26T13:38:18;5.10;;;4.60;;
5022;SDS011;2530;47.990;7.866;2023-06-26T13:40:49;5.15;;;4.72;;
5022;SDS011;2530;47.990;7.866;2023-06-26T13:43:18;4.43;;;4.03;;
5022;SDS011;2530;47.990;7.866;2023-06-26T13:45:45;5.20;;;4.70;;
5022;SDS011;2530;47.990;7.866;2023-06-26T13:48:10;6.22;;;4.65;;
5022;SDS011;2530;47.990;7.866;2023-06-26T13:50:36;5.13;;;4.73;;
5022;SDS011;2530;47.990;7.866;2023-06-26T13:53:01;7.00;;;4.90;;
5022;SDS011;2530;47.990;7.866;2023-06-26T13:55:27;5.25;;;4.40;;
5022;SDS011;2530;47.990;7.866;2023-06-26T13:57:52;5.33;;;4.33;;
5022;SDS011;2530;47.990;7.866;2023-06-26T14:00:18;4.60;;;4.20;;
5022;SDS011;2530;47.990;7.866;2023-06-26T14:02:47;5.50;;;4.70;;
5022;SDS011;2530;47.990;7.866;2023-06-26T14:05:13;5.40;;;4.20;;
5022;SDS011;2530;47.990;7.866;2023-06-26T14:07:38;5.00;;;4.50;;
5022;SDS011;2530;47.990;7.866;2023-06-26T14:10:04;4.75;;;4.25;;
5022;SDS011;2530;47.990;7.866;2023-06-26T14:12:31;4.93;;;4.43;;
5022;SDS011;2530;47.990;7.866;2023-06-26T14:14:57;5.50;;;3.97;;
5022;SDS011;2530;47.990;7.866;2023-06-26T14:17:23;4.65;;;4.25;;
5022;SDS011;2530;47.990;7.866;2023-06-26T14:19:50;7.40;;;4.50;;
5022;SDS011;2530;47.990;7.866;2023-06-26T14:22:16;4.47;;;4.07;;
5022;SDS011;2530;47.990;7.866;2023-06-26T14:24:42;5.40;;;3.63;;
5022;SDS011;2530;47.990;7.866;2023-06-26T14:27:08;3.35;;;3.05;;
5022;SDS011;2530;47.990;7.866;2023-06-26T14:29:33;4.10;;;3.40;;
5022;SDS011;2530;47.990;7.866;2023-06-26T14:32:00;4.13;;;3.55;;
5022;SDS011;2530;47.990;7.866;2023-06-26T14:34:26;3.40;;;3.10;;
5022;SDS011;2530;47.990;7.866;2023-06-26T14:36:51;3.90;;;3.60;;
5022;SDS011;2530;47.990;7.866;2023-06-26T14:39:17;3.58;;;3.28;;
5022;SDS011;2530;47.990;7.866;2023-06-26T14:41:42;3.42;;;3.10;;
5022;SDS011;2530;47.990;7.866;2023-06-26T14:44:08;3.50;;;3.20;;
5022;SDS011;2530;47.990;7.866;2023-06-26T14:46:35;3.40;;;3.10;;
5022;SDS011;2530;47.990;7.866;2023-06-26T14:49:02;5.10;;;3.20;;
5022;SDS011;2530;47.990;7.866;2023-06-26T14:51:28;3.20;;;2.90;;
5022;SDS011;2530;47.990;7.866;2023-06-26T14:53:53;4.72;;;3.10;;
5022;SDS011;2530;47.990;7.866;2023-06-26T14:56:19;3.77;;;3.13;;
5022;SDS011;2530;47.990;7.866;2023-06-26T14:58:45;3.67;;;3.28;;
5022;SDS011;2530;47.990;7.866;2023-06-26T15:01:13;4.43;;;3.38;;
5022;SDS011;2530;47.990;7.866;2023-06-26T15:03:40;5.05;;;3.58;;
5022;SDS011;2530;47.990;7.866;2023-06-26T15:06:06;6.55;;;4.03;;
5022;SDS011;2530;47.990;7.866;2023-06-26T15:08:32;4.10;;;3.70;;
5022;SDS011;2530;47.990;7.866;2023-06-26T15:10:57;4.27;;;3.73;;
5022;SDS011;2530;47.990;7.866;2023-06-26T15:13:23;3.90;;;3.60;;
5022;SDS011;2530;47.990;7.866;2023-06-26T15:15:48;4.23;;;3.70;;
5022;SDS011;2530;47.990;7.866;2023-06-26T15:18:14;4.22;;;3.83;;
5022;SDS011;2530;47.990;7.866;2023-06-26T15:20:41;4.23;;;3.83;;
5022;SDS011;2530;47.990;7.866;2023-06-26T15:23:07;3.90;;;3.50;;
5022;SDS011;2530;47.990;7.866;2023-06-26T15:25:32;3.93;;;3.60;;
5022;SDS011;2530;47.990;7.866;2023-06-26T15:28:00;4.83;;;3.60;;
5022;SDS011;2530;47.990;7.866;2023-06-26T15:30:25;5.35;;;3.97;;
5022;SDS011;2530;47.990;7.866;2023-06-26T15:32:51;4.03;;;3.63;;